sensor_id;sensor_type;location;lat;lon;timestamp;pressure;altitude;pressure_sealevel;temperature
20733;BMP180;10527;52.124;5.196;2022-07-09T00:02:04;102776.00;;;29.40
20733;BMP180;10527;52.124;5.196;2022-07-09T00:04:41;102778.00;;;29.40
20733;BMP180;10527;52.124;5.196;2022-07-09T00:07:08;102777.00;;;29.40
20733;BMP180;10527;52.124;5.196;2022-07-09T00:09:35;102773.00;;;29.40
20733;BMP180;10527;52.124;5.196;2022-07-09T00:12:03;102768.00;;;29.40
20733;BMP180;10527;52.124;5.196;2022-07-09T00:14:32;102768.00;;;29.40
20733;BMP180;10527;52.124;5.196;2022-07-09T00:16:59;102766.00;;;29.40
20733;BMP180;10527;52.124;5.196;2022-07-09T00:19:27;102760.00;;;29.40
20733;BMP180;10527;52.124;5.196;2022-07-09T00:21:54;102762.00;;;29.40
20733;BMP180;10527;52.124;5.196;2022-07-09T00:24:21;102764.00;;;29.40
20733;BMP180;10527;52.124;5.196;2022-07-09T00:26:47;102765.00;;;29.50
20733;BMP180;10527;52.124;5.196;2022-07-09T00:29:14;102760.00;;;29.50
20733;BMP180;10527;52.124;5.196;2022-07-09T00:31:41;102763.00;;;29.50
20733;BMP180;10527;52.124;5.196;2022-07-09T00:34:08;102761.00;;;29.50
20733;BMP180;10527;52.124;5.196;2022-07-09T00:36:35;102759.00;;;29.50
20733;BMP180;10527;52.124;5.196;2022-07-09T00:39:01;102755.00;;;29.50
20733;BMP180;10527;52.124;5.196;2022-07-09T00:41:32;102756.00;;;29.50
20733;BMP180;10527;52.124;5.196;2022-07-09T00:43:59;102752.00;;;29.50
20733;BMP180;10527;52.124;5.196;2022-07-09T00:46:26;102753.00;;;29.50
20733;BMP180;10527;52.124;5.196;2022-07-09T00:48:53;102751.00;;;29.50
20733;BMP180;10527;52.124;5.196;2022-07-09T00:51:20;102753.00;;;29.50
20733;BMP180;10527;52.124;5.196;2022-07-09T00:53:54;102762.00;;;29.40
20733;BMP180;10527;52.124;5.196;2022-07-09T00:56:22;102764.00;;;29.40
20733;BMP180;10527;52.124;5.196;2022-07-09T00:58:52;102758.00;;;29.40
20733;BMP180;10527;52.124;5.196;2022-07-09T01:01:29;102757.00;;;29.30
20733;BMP180;10527;52.124;5.196;2022-07-09T01:03:58;102750.00;;;29.30
20733;BMP180;10527;52.124;5.196;2022-07-09T01:06:25;102745.00;;;29.20
20733;BMP180;10527;52.124;5.196;2022-07-09T01:08:52;102750.00;;;29.10
20733;BMP180;10527;52.124;5.196;2022-07-09T01:11:19;102751.00;;;29.10
20733;BMP180;10527;52.124;5.196;2022-07-09T01:13:50;102750.00;;;29.10
20733;BMP180;10527;52.124;5.196;2022-07-09T01:16:17;102738.00;;;29.10
20733;BMP180;10527;52.124;5.196;2022-07-09T01:18:48;102741.00;;;29.00
20733;BMP180;10527;52.124;5.196;2022-07-09T01:21:15;102747.00;;;29.00
20733;BMP180;10527;52.124;5.196;2022-07-09T01:23:44;102750.00;;;29.00
20733;BMP180;10527;52.124;5.196;2022-07-09T01:26:11;102736.00;;;28.90
20733;BMP180;10527;52.124;5.196;2022-07-09T01:28:38;102739.00;;;28.90
20733;BMP180;10527;52.124;5.196;2022-07-09T01:31:14;102736.00;;;28.90
20733;BMP180;10527;52.124;5.196;2022-07-09T01:33:41;102733.00;;;28.90
20733;BMP180;10527;52.124;5.196;2022-07-09T01:36:08;102738.00;;;28.90
20733;BMP180;10527;52.124;5.196;2022-07-09T01:38:35;102732.00;;;28.90
20733;BMP180;10527;52.124;5.196;2022-07-09T01:41:03;102729.00;;;28.90
20733;BMP180;10527;52.124;5.196;2022-07-09T01:43:30;102722.00;;;28.90
20733;BMP180;10527;52.124;5.196;2022-07-09T01:45:59;102728.00;;;28.80
20733;BMP180;10527;52.124;5.196;2022-07-09T01:48:28;102720.00;;;28.80
20733;BMP180;10527;52.124;5.196;2022-07-09T01:50:56;102714.00;;;28.80
20733;BMP180;10527;52.124;5.196;2022-07-09T01:53:31;102726.00;;;28.80
20733;BMP180;10527;52.124;5.196;2022-07-09T01:56:07;102714.00;;;28.80
20733;BMP180;10527;52.124;5.196;2022-07-09T01:58:35;102716.00;;;28.80
20733;BMP180;10527;52.124;5.196;2022-07-09T02:01:03;102711.00;;;28.80
20733;BMP180;10527;52.124;5.196;2022-07-09T02:03:30;102709.00;;;28.80
20733;BMP180;10527;52.124;5.196;2022-07-09T02:05:57;102703.00;;;28.70
20733;BMP180;10527;52.124;5.196;2022-07-09T02:08:23;102715.00;;;28.70
20733;BMP180;10527;52.124;5.196;2022-07-09T02:10:50;102709.00;;;28.70
20733;BMP180;10527;52.124;5.196;2022-07-09T02:13:31;102705.00;;;28.70
20733;BMP180;10527;52.124;5.196;2022-07-09T02:15:58;102708.00;;;28.70
20733;BMP180;10527;52.124;5.196;2022-07-09T02:18:28;102700.00;;;28.70
20733;BMP180;10527;52.124;5.196;2022-07-09T02:20:55;102707.00;;;28.70
20733;BMP180;10527;52.124;5.196;2022-07-09T02:23:22;102696.00;;;28.70
20733;BMP180;10527;52.124;5.196;2022-07-09T02:25:50;102701.00;;;28.70
20733;BMP180;10527;52.124;5.196;2022-07-09T02:28:17;102698.00;;;28.70
20733;BMP180;10527;52.124;5.196;2022-07-09T02:30:44;102698.00;;;28.60
20733;BMP180;10527;52.124;5.196;2022-07-09T02:33:11;102699.00;;;28.60
20733;BMP180;10527;52.124;5.196;2022-07-09T02:35:43;102701.00;;;28.60
20733;BMP180;10527;52.124;5.196;2022-07-09T02:38:10;102696.00;;;28.60
20733;BMP180;10527;52.124;5.196;2022-07-09T02:40:37;102692.00;;;28.60
20733;BMP180;10527;52.124;5.196;2022-07-09T02:43:06;102697.00;;;28.60
20733;BMP180;10527;52.124;5.196;2022-07-09T02:45:33;102693.00;;;28.60
20733;BMP180;10527;52.124;5.196;2022-07-09T02:48:01;102687.00;;;28.60
20733;BMP180;10527;52.124;5.196;2022-07-09T02:50:28;102691.00;;;28.60
20733;BMP180;10527;52.124;5.196;2022-07-09T02:52:57;102695.00;;;28.60
20733;BMP180;10527;52.124;5.196;2022-07-09T02:55:23;102692.00;;;28.60
20733;BMP180;10527;52.124;5.196;2022-07-09T02:57:50;102683.00;;;28.60
20733;BMP180;10527;52.124;5.196;2022-07-09T03:00:20;102686.00;;;28.60
20733;BMP180;10527;52.124;5.196;2022-07-09T03:02:47;102685.00;;;28.60
20733;BMP180;10527;52.124;5.196;2022-07-09T03:05:15;102679.00;;;28.60
20733;BMP180;10527;52.124;5.196;2022-07-09T03:07:41;102686.00;;;28.60
20733;BMP180;10527;52.124;5.196;2022-07-09T03:10:09;102683.00;;;28.60
20733;BMP180;10527;52.124;5.196;2022-07-09T03:12:36;102686.00;;;28.60
20733;BMP180;10527;52.124;5.196;2022-07-09T03:15:04;102687.00;;;28.70
20733;BMP180;10527;52.124;5.196;2022-07-09T03:17:31;102688.00;;;28.60
20733;BMP180;10527;52.124;5.196;2022-07-09T03:19:58;102682.00;;;28.60
20733;BMP180;10527;52.124;5.196;2022-07-09T03:22:25;102681.00;;;28.60
20733;BMP180;10527;52.124;5.196;2022-07-09T03:24:52;102696.00;;;28.60
20733;BMP180;10527;52.124;5.196;2022-07-09T03:27:19;102689.00;;;28.60
20733;BMP180;10527;52.124;5.196;2022-07-09T03:29:46;102692.00;;;28.60
20733;BMP180;10527;52.124;5.196;2022-07-09T03:32:12;102684.00;;;28.60
20733;BMP180;10527;52.124;5.196;2022-07-09T03:34:43;102685.00;;;28.50
20733;BMP180;10527;52.124;5.196;2022-07-09T03:37:10;102684.00;;;28.50
20733;BMP180;10527;52.124;5.196;2022-07-09T03:39:37;102687.00;;;28.50
20733;BMP180;10527;52.124;5.196;2022-07-09T03:42:04;102684.00;;;28.50
20733;BMP180;10527;52.124;5.196;2022-07-09T03:44:33;102685.00;;;28.50
20733;BMP180;10527;52.124;5.196;2022-07-09T03:47:01;102686.00;;;28.50
20733;BMP180;10527;52.124;5.196;2022-07-09T03:49:28;102686.00;;;28.50
20733;BMP180;10527;52.124;5.196;2022-07-09T03:51:55;102683.00;;;28.50
20733;BMP180;10527;52.124;5.196;2022-07-09T03:54:41;102682.00;;;28.40
20733;BMP180;10527;52.124;5.196;2022-07-09T03:57:07;102676.00;;;28.40
20733;BMP180;10527;52.124;5.196;2022-07-09T03:59:34;102684.00;;;28.40
20733;BMP180;10527;52.124;5.196;2022-07-09T04:02:02;102684.00;;;28.30
20733;BMP180;10527;52.124;5.196;2022-07-09T04:04:38;102682.00;;;28.30
20733;BMP180;10527;52.124;5.196;2022-07-09T04:07:05;102677.00;;;28.30
20733;BMP180;10527;52.124;5.196;2022-07-09T04:09:33;102683.00;;;28.40
20733;BMP180;10527;52.124;5.196;2022-07-09T04:11:59;102672.00;;;28.40
20733;BMP180;10527;52.124;5.196;2022-07-09T04:14:28;102663.00;;;28.40
20733;BMP180;10527;52.124;5.196;2022-07-09T04:16:55;102672.00;;;28.40
20733;BMP180;10527;52.124;5.196;2022-07-09T04:19:22;102658.00;;;28.40
20733;BMP180;10527;52.124;5.196;2022-07-09T04:21:51;102654.00;;;28.40
20733;BMP180;10527;52.124;5.196;2022-07-09T04:24:18;102653.00;;;28.40
20733;BMP180;10527;52.124;5.196;2022-07-09T04:26:45;102660.00;;;28.40
20733;BMP180;10527;52.124;5.196;2022-07-09T04:29:12;102658.00;;;28.40
20733;BMP180;10527;52.124;5.196;2022-07-09T04:31:39;102661.00;;;28.40
20733;BMP180;10527;52.124;5.196;2022-07-09T04:34:12;102656.00;;;28.50
20733;BMP180;10527;52.124;5.196;2022-07-09T04:36:39;102657.00;;;28.50
20733;BMP180;10527;52.124;5.196;2022-07-09T04:39:06;102653.00;;;28.50
20733;BMP180;10527;52.124;5.196;2022-07-09T04:41:33;102659.00;;;28.60
20733;BMP180;10527;52.124;5.196;2022-07-09T04:44:00;102662.00;;;28.60
20733;BMP180;10527;52.124;5.196;2022-07-09T04:46:27;102655.00;;;28.60
20733;BMP180;10527;52.124;5.196;2022-07-09T04:48:59;102653.00;;;28.70
20733;BMP180;10527;52.124;5.196;2022-07-09T04:51:26;102646.00;;;28.70
20733;BMP180;10527;52.124;5.196;2022-07-09T04:53:53;102641.00;;;28.70
20733;BMP180;10527;52.124;5.196;2022-07-09T04:56:19;102647.00;;;28.80
20733;BMP180;10527;52.124;5.196;2022-07-09T04:58:46;102638.00;;;28.80
20733;BMP180;10527;52.124;5.196;2022-07-09T05:01:23;102643.00;;;28.80
20733;BMP180;10527;52.124;5.196;2022-07-09T05:03:50;102624.00;;;28.90
20733;BMP180;10527;52.124;5.196;2022-07-09T05:06:18;102631.00;;;28.90
20733;BMP180;10527;52.124;5.196;2022-07-09T05:08:48;102618.00;;;28.90
20733;BMP180;10527;52.124;5.196;2022-07-09T05:11:14;102632.00;;;28.90
20733;BMP180;10527;52.124;5.196;2022-07-09T05:13:45;102626.00;;;29.00
20733;BMP180;10527;52.124;5.196;2022-07-09T05:16:14;102629.00;;;29.00
20733;BMP180;10527;52.124;5.196;2022-07-09T05:18:41;102628.00;;;29.00
20733;BMP180;10527;52.124;5.196;2022-07-09T05:21:09;102624.00;;;29.10
20733;BMP180;10527;52.124;5.196;2022-07-09T05:23:36;102627.00;;;29.10
20733;BMP180;10527;52.124;5.196;2022-07-09T05:26:03;102631.00;;;29.10
20733;BMP180;10527;52.124;5.196;2022-07-09T05:28:30;102630.00;;;29.20
20733;BMP180;10527;52.124;5.196;2022-07-09T05:30:57;102628.00;;;29.20
20733;BMP180;10527;52.124;5.196;2022-07-09T05:33:45;102618.00;;;29.20
20733;BMP180;10527;52.124;5.196;2022-07-09T05:36:16;102613.00;;;29.30
20733;BMP180;10527;52.124;5.196;2022-07-09T05:38:47;102621.00;;;29.30
20733;BMP180;10527;52.124;5.196;2022-07-09T05:41:17;102627.00;;;29.30
20733;BMP180;10527;52.124;5.196;2022-07-09T05:43:44;102626.00;;;29.30
20733;BMP180;10527;52.124;5.196;2022-07-09T05:46:11;102629.00;;;29.40
20733;BMP180;10527;52.124;5.196;2022-07-09T05:48:38;102638.00;;;29.40
20733;BMP180;10527;52.124;5.196;2022-07-09T05:51:05;102642.00;;;29.40
20733;BMP180;10527;52.124;5.196;2022-07-09T05:53:36;102646.00;;;29.50
20733;BMP180;10527;52.124;5.196;2022-07-09T05:56:05;102631.00;;;29.60
20733;BMP180;10527;52.124;5.196;2022-07-09T05:58:32;102631.00;;;29.60
20733;BMP180;10527;52.124;5.196;2022-07-09T06:01:00;102634.00;;;29.60
20733;BMP180;10527;52.124;5.196;2022-07-09T06:03:27;102639.00;;;29.50
20733;BMP180;10527;52.124;5.196;2022-07-09T06:05:54;102629.00;;;29.50
20733;BMP180;10527;52.124;5.196;2022-07-09T06:08:21;102631.00;;;29.50
20733;BMP180;10527;52.124;5.196;2022-07-09T06:10:47;102638.00;;;29.50
20733;BMP180;10527;52.124;5.196;2022-07-09T06:13:15;102638.00;;;29.50
20733;BMP180;10527;52.124;5.196;2022-07-09T06:15:42;102639.00;;;29.60
20733;BMP180;10527;52.124;5.196;2022-07-09T06:18:09;102626.00;;;29.60
20733;BMP180;10527;52.124;5.196;2022-07-09T06:20:36;102624.00;;;29.60
20733;BMP180;10527;52.124;5.196;2022-07-09T06:23:06;102627.00;;;29.50
20733;BMP180;10527;52.124;5.196;2022-07-09T06:25:33;102635.00;;;29.50
20733;BMP180;10527;52.124;5.196;2022-07-09T06:28:00;102642.00;;;29.50
20733;BMP180;10527;52.124;5.196;2022-07-09T06:30:27;102642.00;;;29.50
20733;BMP180;10527;52.124;5.196;2022-07-09T06:32:54;102644.00;;;29.60
20733;BMP180;10527;52.124;5.196;2022-07-09T06:35:21;102642.00;;;29.60
20733;BMP180;10527;52.124;5.196;2022-07-09T06:37:48;102646.00;;;29.60
20733;BMP180;10527;52.124;5.196;2022-07-09T06:40:15;102640.00;;;29.60
20733;BMP180;10527;52.124;5.196;2022-07-09T06:42:42;102638.00;;;29.50
20733;BMP180;10527;52.124;5.196;2022-07-09T06:45:09;102654.00;;;29.50
20733;BMP180;10527;52.124;5.196;2022-07-09T06:47:39;102647.00;;;29.50
20733;BMP180;10527;52.124;5.196;2022-07-09T06:50:11;102643.00;;;29.40
20733;BMP180;10527;52.124;5.196;2022-07-09T06:52:38;102645.00;;;29.40
20733;BMP180;10527;52.124;5.196;2022-07-09T06:55:06;102639.00;;;29.40
20733;BMP180;10527;52.124;5.196;2022-07-09T06:57:33;102634.00;;;29.40
20733;BMP180;10527;52.124;5.196;2022-07-09T07:00:01;102624.00;;;29.40
20733;BMP180;10527;52.124;5.196;2022-07-09T07:02:28;102617.00;;;29.50
20733;BMP180;10527;52.124;5.196;2022-07-09T07:04:55;102629.00;;;29.50
20733;BMP180;10527;52.124;5.196;2022-07-09T07:07:21;102632.00;;;29.60
20733;BMP180;10527;52.124;5.196;2022-07-09T07:09:48;102640.00;;;29.60
20733;BMP180;10527;52.124;5.196;2022-07-09T07:12:15;102644.00;;;29.60
20733;BMP180;10527;52.124;5.196;2022-07-09T07:14:42;102645.00;;;29.60
20733;BMP180;10527;52.124;5.196;2022-07-09T07:17:09;102645.00;;;29.70
20733;BMP180;10527;52.124;5.196;2022-07-09T07:19:36;102646.00;;;29.70
20733;BMP180;10527;52.124;5.196;2022-07-09T07:22:03;102648.00;;;29.80
20733;BMP180;10527;52.124;5.196;2022-07-09T07:24:30;102644.00;;;29.80
20733;BMP180;10527;52.124;5.196;2022-07-09T07:26:57;102646.00;;;29.90
20733;BMP180;10527;52.124;5.196;2022-07-09T07:29:25;102642.00;;;29.90
20733;BMP180;10527;52.124;5.196;2022-07-09T07:31:53;102651.00;;;29.90
20733;BMP180;10527;52.124;5.196;2022-07-09T07:34:20;102645.00;;;29.90
20733;BMP180;10527;52.124;5.196;2022-07-09T07:36:51;102648.00;;;29.80
20733;BMP180;10527;52.124;5.196;2022-07-09T07:39:19;102655.00;;;29.80
20733;BMP180;10527;52.124;5.196;2022-07-09T07:41:48;102653.00;;;29.80
20733;BMP180;10527;52.124;5.196;2022-07-09T07:44:15;102655.00;;;29.80
20733;BMP180;10527;52.124;5.196;2022-07-09T07:46:42;102647.00;;;29.80
20733;BMP180;10527;52.124;5.196;2022-07-09T07:49:09;102649.00;;;29.80
20733;BMP180;10527;52.124;5.196;2022-07-09T07:51:35;102653.00;;;29.80
20733;BMP180;10527;52.124;5.196;2022-07-09T07:54:02;102642.00;;;29.90
20733;BMP180;10527;52.124;5.196;2022-07-09T07:56:29;102639.00;;;30.00
20733;BMP180;10527;52.124;5.196;2022-07-09T07:58:59;102650.00;;;30.00
20733;BMP180;10527;52.124;5.196;2022-07-09T08:01:25;102641.00;;;30.10
20733;BMP180;10527;52.124;5.196;2022-07-09T08:03:52;102638.00;;;30.10
20733;BMP180;10527;52.124;5.196;2022-07-09T08:06:19;102640.00;;;30.10
20733;BMP180;10527;52.124;5.196;2022-07-09T08:08:48;102648.00;;;30.00
20733;BMP180;10527;52.124;5.196;2022-07-09T08:11:15;102644.00;;;30.00
20733;BMP180;10527;52.124;5.196;2022-07-09T08:13:42;102642.00;;;30.10
20733;BMP180;10527;52.124;5.196;2022-07-09T08:16:09;102639.00;;;30.10
20733;BMP180;10527;52.124;5.196;2022-07-09T08:18:36;102640.00;;;30.00
20733;BMP180;10527;52.124;5.196;2022-07-09T08:21:04;102631.00;;;30.00
20733;BMP180;10527;52.124;5.196;2022-07-09T08:23:31;102632.00;;;30.00
20733;BMP180;10527;52.124;5.196;2022-07-09T08:25:58;102633.00;;;29.90
20733;BMP180;10527;52.124;5.196;2022-07-09T08:28:25;102631.00;;;30.00
20733;BMP180;10527;52.124;5.196;2022-07-09T08:30:52;102642.00;;;30.00
20733;BMP180;10527;52.124;5.196;2022-07-09T08:33:21;102651.00;;;30.00
20733;BMP180;10527;52.124;5.196;2022-07-09T08:35:48;102652.00;;;30.10
20733;BMP180;10527;52.124;5.196;2022-07-09T08:38:14;102648.00;;;30.10
20733;BMP180;10527;52.124;5.196;2022-07-09T08:40:42;102642.00;;;30.10
20733;BMP180;10527;52.124;5.196;2022-07-09T08:43:10;102633.00;;;30.20
20733;BMP180;10527;52.124;5.196;2022-07-09T08:45:37;102634.00;;;30.20
20733;BMP180;10527;52.124;5.196;2022-07-09T08:48:07;102631.00;;;30.30
20733;BMP180;10527;52.124;5.196;2022-07-09T08:50:35;102628.00;;;30.30
20733;BMP180;10527;52.124;5.196;2022-07-09T08:53:03;102630.00;;;30.40
20733;BMP180;10527;52.124;5.196;2022-07-09T08:55:31;102629.00;;;30.40
20733;BMP180;10527;52.124;5.196;2022-07-09T08:57:59;102632.00;;;30.50
20733;BMP180;10527;52.124;5.196;2022-07-09T09:00:29;102627.00;;;30.60
20733;BMP180;10527;52.124;5.196;2022-07-09T09:02:55;102626.00;;;30.70
20733;BMP180;10527;52.124;5.196;2022-07-09T09:05:22;102630.00;;;30.70
20733;BMP180;10527;52.124;5.196;2022-07-09T09:07:49;102621.00;;;30.70
20733;BMP180;10527;52.124;5.196;2022-07-09T09:10:27;102620.00;;;30.70
20733;BMP180;10527;52.124;5.196;2022-07-09T09:12:59;102625.00;;;30.80
20733;BMP180;10527;52.124;5.196;2022-07-09T09:15:28;102625.00;;;30.70
20733;BMP180;10527;52.124;5.196;2022-07-09T09:17:56;102620.00;;;30.80
20733;BMP180;10527;52.124;5.196;2022-07-09T09:20:24;102613.00;;;30.80
20733;BMP180;10527;52.124;5.196;2022-07-09T09:22:57;102623.00;;;31.00
20733;BMP180;10527;52.124;5.196;2022-07-09T09:25:28;102624.00;;;31.00
20733;BMP180;10527;52.124;5.196;2022-07-09T09:27:59;102623.00;;;31.00
20733;BMP180;10527;52.124;5.196;2022-07-09T09:30:29;102622.00;;;31.00
20733;BMP180;10527;52.124;5.196;2022-07-09T09:35:33;102624.00;;;31.20
20733;BMP180;10527;52.124;5.196;2022-07-09T09:38:00;102638.00;;;31.20
20733;BMP180;10527;52.124;5.196;2022-07-09T09:40:28;102632.00;;;31.30
20733;BMP180;10527;52.124;5.196;2022-07-09T09:43:02;102628.00;;;31.30
20733;BMP180;10527;52.124;5.196;2022-07-09T09:45:32;102634.00;;;31.30
20733;BMP180;10527;52.124;5.196;2022-07-09T09:47:59;102629.00;;;31.40
20733;BMP180;10527;52.124;5.196;2022-07-09T09:50:31;102633.00;;;31.40
20733;BMP180;10527;52.124;5.196;2022-07-09T09:53:08;102635.00;;;31.50
20733;BMP180;10527;52.124;5.196;2022-07-09T09:55:36;102641.00;;;31.50
20733;BMP180;10527;52.124;5.196;2022-07-09T09:58:06;102642.00;;;31.50
20733;BMP180;10527;52.124;5.196;2022-07-09T10:00:34;102642.00;;;31.40
20733;BMP180;10527;52.124;5.196;2022-07-09T10:03:02;102656.00;;;31.40
20733;BMP180;10527;52.124;5.196;2022-07-09T10:05:29;102655.00;;;31.40
20733;BMP180;10527;52.124;5.196;2022-07-09T10:07:56;102650.00;;;31.30
20733;BMP180;10527;52.124;5.196;2022-07-09T10:10:23;102643.00;;;31.20
20733;BMP180;10527;52.124;5.196;2022-07-09T10:12:50;102653.00;;;31.10
20733;BMP180;10527;52.124;5.196;2022-07-09T10:15:26;102659.00;;;31.10
20733;BMP180;10527;52.124;5.196;2022-07-09T10:17:54;102651.00;;;31.00
20733;BMP180;10527;52.124;5.196;2022-07-09T10:20:33;102651.00;;;31.00
20733;BMP180;10527;52.124;5.196;2022-07-09T10:23:03;102652.00;;;31.00
20733;BMP180;10527;52.124;5.196;2022-07-09T10:25:43;102655.00;;;31.00
20733;BMP180;10527;52.124;5.196;2022-07-09T10:28:18;102658.00;;;31.00
20733;BMP180;10527;52.124;5.196;2022-07-09T10:30:47;102660.00;;;31.00
20733;BMP180;10527;52.124;5.196;2022-07-09T10:33:31;102664.00;;;31.00
20733;BMP180;10527;52.124;5.196;2022-07-09T10:36:10;102664.00;;;31.00
20733;BMP180;10527;52.124;5.196;2022-07-09T10:38:38;102667.00;;;31.00
20733;BMP180;10527;52.124;5.196;2022-07-09T10:41:05;102670.00;;;31.00
20733;BMP180;10527;52.124;5.196;2022-07-09T10:43:51;102668.00;;;31.00
20733;BMP180;10527;52.124;5.196;2022-07-09T10:46:19;102664.00;;;31.00
20733;BMP180;10527;52.124;5.196;2022-07-09T10:48:47;102658.00;;;31.00
20733;BMP180;10527;52.124;5.196;2022-07-09T10:51:19;102673.00;;;31.00
20733;BMP180;10527;52.124;5.196;2022-07-09T10:53:47;102664.00;;;31.10
20733;BMP180;10527;52.124;5.196;2022-07-09T10:56:19;102668.00;;;31.20
20733;BMP180;10527;52.124;5.196;2022-07-09T10:58:47;102660.00;;;31.30
20733;BMP180;10527;52.124;5.196;2022-07-09T11:01:24;102663.00;;;31.40
20733;BMP180;10527;52.124;5.196;2022-07-09T11:03:54;102672.00;;;31.40
20733;BMP180;10527;52.124;5.196;2022-07-09T11:06:21;102669.00;;;31.50
20733;BMP180;10527;52.124;5.196;2022-07-09T11:08:48;102670.00;;;31.50
20733;BMP180;10527;52.124;5.196;2022-07-09T11:11:23;102680.00;;;31.60
20733;BMP180;10527;52.124;5.196;2022-07-09T11:13:51;102672.00;;;31.70
20733;BMP180;10527;52.124;5.196;2022-07-09T11:16:26;102671.00;;;31.80
20733;BMP180;10527;52.124;5.196;2022-07-09T11:18:54;102668.00;;;31.80
20733;BMP180;10527;52.124;5.196;2022-07-09T11:21:25;102670.00;;;31.80
20733;BMP180;10527;52.124;5.196;2022-07-09T11:23:56;102674.00;;;31.80
20733;BMP180;10527;52.124;5.196;2022-07-09T11:26:23;102673.00;;;31.80
20733;BMP180;10527;52.124;5.196;2022-07-09T11:28:50;102683.00;;;31.70
20733;BMP180;10527;52.124;5.196;2022-07-09T11:31:18;102680.00;;;31.60
20733;BMP180;10527;52.124;5.196;2022-07-09T11:33:46;102683.00;;;31.60
20733;BMP180;10527;52.124;5.196;2022-07-09T11:37:00;102676.00;;;31.60
20733;BMP180;10527;52.124;5.196;2022-07-09T11:39:32;102692.00;;;31.60
20733;BMP180;10527;52.124;5.196;2022-07-09T11:42:04;102678.00;;;31.60
20733;BMP180;10527;52.124;5.196;2022-07-09T11:44:34;102685.00;;;31.70
20733;BMP180;10527;52.124;5.196;2022-07-09T11:47:12;102686.00;;;31.60
20733;BMP180;10527;52.124;5.196;2022-07-09T11:49:51;102680.00;;;31.50
20733;BMP180;10527;52.124;5.196;2022-07-09T11:52:24;102680.00;;;31.50
20733;BMP180;10527;52.124;5.196;2022-07-09T11:55:08;102682.00;;;31.50
20733;BMP180;10527;52.124;5.196;2022-07-09T11:57:37;102675.00;;;31.60
20733;BMP180;10527;52.124;5.196;2022-07-09T12:00:08;102677.00;;;31.60
20733;BMP180;10527;52.124;5.196;2022-07-09T12:03:22;102676.00;;;31.70
20733;BMP180;10527;52.124;5.196;2022-07-09T12:06:10;102676.00;;;31.70
20733;BMP180;10527;52.124;5.196;2022-07-09T12:08:38;102674.00;;;31.70
20733;BMP180;10527;52.124;5.196;2022-07-09T12:11:05;102685.00;;;31.70
20733;BMP180;10527;52.124;5.196;2022-07-09T12:13:38;102684.00;;;31.70
20733;BMP180;10527;52.124;5.196;2022-07-09T12:16:05;102678.00;;;31.60
20733;BMP180;10527;52.124;5.196;2022-07-09T12:18:32;102682.00;;;31.50
20733;BMP180;10527;52.124;5.196;2022-07-09T12:21:01;102681.00;;;31.50
20733;BMP180;10527;52.124;5.196;2022-07-09T12:23:28;102674.00;;;31.50
20733;BMP180;10527;52.124;5.196;2022-07-09T12:26:00;102674.00;;;31.60
20733;BMP180;10527;52.124;5.196;2022-07-09T12:28:27;102672.00;;;31.60
20733;BMP180;10527;52.124;5.196;2022-07-09T12:30:55;102675.00;;;31.60
20733;BMP180;10527;52.124;5.196;2022-07-09T12:33:22;102670.00;;;31.60
20733;BMP180;10527;52.124;5.196;2022-07-09T12:35:49;102652.00;;;31.70
20733;BMP180;10527;52.124;5.196;2022-07-09T12:38:16;102661.00;;;31.70
20733;BMP180;10527;52.124;5.196;2022-07-09T12:40:43;102657.00;;;31.90
20733;BMP180;10527;52.124;5.196;2022-07-09T12:43:10;102653.00;;;32.00
20733;BMP180;10527;52.124;5.196;2022-07-09T12:45:37;102659.00;;;32.00
20733;BMP180;10527;52.124;5.196;2022-07-09T12:48:09;102667.00;;;32.10
20733;BMP180;10527;52.124;5.196;2022-07-09T12:50:35;102652.00;;;32.10
20733;BMP180;10527;52.124;5.196;2022-07-09T12:53:02;102650.00;;;32.10
20733;BMP180;10527;52.124;5.196;2022-07-09T12:55:29;102659.00;;;32.10
20733;BMP180;10527;52.124;5.196;2022-07-09T12:58:16;102650.00;;;32.10
20733;BMP180;10527;52.124;5.196;2022-07-09T13:00:49;102653.00;;;32.10
20733;BMP180;10527;52.124;5.196;2022-07-09T13:03:16;102652.00;;;32.10
20733;BMP180;10527;52.124;5.196;2022-07-09T13:05:43;102648.00;;;32.10
20733;BMP180;10527;52.124;5.196;2022-07-09T13:08:10;102657.00;;;32.20
20733;BMP180;10527;52.124;5.196;2022-07-09T13:10:37;102641.00;;;32.30
20733;BMP180;10527;52.124;5.196;2022-07-09T13:13:03;102645.00;;;32.40
20733;BMP180;10527;52.124;5.196;2022-07-09T13:15:30;102638.00;;;32.40
20733;BMP180;10527;52.124;5.196;2022-07-09T13:17:57;102643.00;;;32.50
20733;BMP180;10527;52.124;5.196;2022-07-09T13:20:28;102632.00;;;32.60
20733;BMP180;10527;52.124;5.196;2022-07-09T13:23:04;102640.00;;;32.70
20733;BMP180;10527;52.124;5.196;2022-07-09T13:25:31;102633.00;;;32.80
20733;BMP180;10527;52.124;5.196;2022-07-09T13:28:01;102642.00;;;32.80
20733;BMP180;10527;52.124;5.196;2022-07-09T13:30:28;102653.00;;;32.80
20733;BMP180;10527;52.124;5.196;2022-07-09T13:33:14;102651.00;;;32.70
20733;BMP180;10527;52.124;5.196;2022-07-09T13:35:48;102652.00;;;32.60
20733;BMP180;10527;52.124;5.196;2022-07-09T13:38:15;102659.00;;;32.50
20733;BMP180;10527;52.124;5.196;2022-07-09T13:40:46;102668.00;;;32.40
20733;BMP180;10527;52.124;5.196;2022-07-09T13:43:13;102664.00;;;32.40
20733;BMP180;10527;52.124;5.196;2022-07-09T13:45:49;102662.00;;;32.40
20733;BMP180;10527;52.124;5.196;2022-07-09T13:48:16;102664.00;;;32.30
20733;BMP180;10527;52.124;5.196;2022-07-09T13:50:43;102665.00;;;32.30
20733;BMP180;10527;52.124;5.196;2022-07-09T13:53:10;102662.00;;;32.20
20733;BMP180;10527;52.124;5.196;2022-07-09T13:55:37;102663.00;;;32.20
20733;BMP180;10527;52.124;5.196;2022-07-09T13:58:03;102660.00;;;32.20
20733;BMP180;10527;52.124;5.196;2022-07-09T14:00:30;102669.00;;;32.20
20733;BMP180;10527;52.124;5.196;2022-07-09T14:02:57;102662.00;;;32.20
20733;BMP180;10527;52.124;5.196;2022-07-09T14:05:24;102679.00;;;32.20
20733;BMP180;10527;52.124;5.196;2022-07-09T14:07:51;102673.00;;;32.20
20733;BMP180;10527;52.124;5.196;2022-07-09T14:10:18;102674.00;;;32.10